sensor_id;sensor_type;location;lat;lon;timestamp;P1;durP1;ratioP1;P2;durP2;ratioP2
45136;SDS011;30894;51.740;19.498;2023-05-29T00:13:10;3.38;;;2.00;;
45136;SDS011;30894;51.740;19.498;2023-05-29T00:16:07;2.15;;;1.20;;
45136;SDS011;30894;51.740;19.498;2023-05-29T00:19:26;3.13;;;1.38;;
45136;SDS011;30894;51.740;19.498;2023-05-29T00:25:30;3.10;;;1.80;;
45136;SDS011;30894;51.740;19.498;2023-05-29T00:32:53;3.67;;;1.45;;
45136;SDS011;30894;51.740;19.498;2023-05-29T00:36:06;2.17;;;1.40;;
45136;SDS011;30894;51.740;19.498;2023-05-29T00:43:08;3.63;;;1.70;;
45136;SDS011;30894;51.740;19.498;2023-05-29T01:00:45;3.30;;;1.70;;
45136;SDS011;30894;51.740;19.498;2023-05-29T01:10:51;6.93;;;2.47;;
45136;SDS011;30894;51.740;19.498;2023-05-29T01:26:44;9.80;;;2.22;;
45136;SDS011;30894;51.740;19.498;2023-05-29T01:29:43;4.13;;;2.15;;
45136;SDS011;30894;51.740;19.498;2023-05-29T01:32:48;4.18;;;1.60;;
45136;SDS011;30894;51.740;19.498;2023-05-29T01:40:24;5.22;;;2.15;;
45136;SDS011;30894;51.740;19.498;2023-05-29T01:43:32;5.97;;;1.73;;
45136;SDS011;30894;51.740;19.498;2023-05-29T01:46:40;4.85;;;1.95;;
45136;SDS011;30894;51.740;19.498;2023-05-29T01:53:58;2.67;;;1.75;;
45136;SDS011;30894;51.740;19.498;2023-05-29T01:57:26;4.18;;;1.73;;
45136;SDS011;30894;51.740;19.498;2023-05-29T02:04:39;3.42;;;1.65;;
45136;SDS011;30894;51.740;19.498;2023-05-29T02:16:00;4.32;;;1.42;;
45136;SDS011;30894;51.740;19.498;2023-05-29T02:18:43;4.25;;;1.73;;
45136;SDS011;30894;51.740;19.498;2023-05-29T02:29:00;3.35;;;1.65;;
45136;SDS011;30894;51.740;19.498;2023-05-29T02:32:12;8.38;;;1.83;;
45136;SDS011;30894;51.740;19.498;2023-05-29T02:39:42;7.38;;;1.80;;
45136;SDS011;30894;51.740;19.498;2023-05-29T02:43:33;3.90;;;1.83;;
45136;SDS011;30894;51.740;19.498;2023-05-29T02:46:34;6.35;;;2.28;;
45136;SDS011;30894;51.740;19.498;2023-05-29T02:50:19;3.13;;;1.60;;
45136;SDS011;30894;51.740;19.498;2023-05-29T02:57:04;6.50;;;2.10;;
45136;SDS011;30894;51.740;19.498;2023-05-29T03:00:39;5.30;;;1.55;;
45136;SDS011;30894;51.740;19.498;2023-05-29T03:04:32;3.53;;;1.55;;
45136;SDS011;30894;51.740;19.498;2023-05-29T03:08:29;2.83;;;1.33;;
45136;SDS011;30894;51.740;19.498;2023-05-29T03:11:28;3.58;;;2.00;;
45136;SDS011;30894;51.740;19.498;2023-05-29T03:14:56;5.22;;;1.88;;
45136;SDS011;30894;51.740;19.498;2023-05-29T03:18:37;4.60;;;2.22;;
45136;SDS011;30894;51.740;19.498;2023-05-29T03:25:18;6.88;;;2.25;;
45136;SDS011;30894;51.740;19.498;2023-05-29T03:36:11;3.33;;;2.33;;
45136;SDS011;30894;51.740;19.498;2023-05-29T03:39:38;6.35;;;2.13;;
45136;SDS011;30894;51.740;19.498;2023-05-29T03:43:00;5.88;;;2.13;;
45136;SDS011;30894;51.740;19.498;2023-05-29T04:01:53;5.47;;;2.70;;
45136;SDS011;30894;51.740;19.498;2023-05-29T04:05:39;4.45;;;2.63;;
45136;SDS011;30894;51.740;19.498;2023-05-29T04:08:36;4.43;;;2.63;;
45136;SDS011;30894;51.740;19.498;2023-05-29T04:11:59;3.17;;;1.60;;
45136;SDS011;30894;51.740;19.498;2023-05-29T04:15:37;5.55;;;2.45;;
45136;SDS011;30894;51.740;19.498;2023-05-29T04:18:28;7.53;;;2.70;;
45136;SDS011;30894;51.740;19.498;2023-05-29T04:25:09;1.77;;;1.65;;
45136;SDS011;30894;51.740;19.498;2023-05-29T04:29:11;5.63;;;2.40;;
45136;SDS011;30894;51.740;19.498;2023-05-29T04:32:26;3.97;;;2.20;;
45136;SDS011;30894;51.740;19.498;2023-05-29T04:40:20;6.00;;;2.70;;
45136;SDS011;30894;51.740;19.498;2023-05-29T04:43:44;5.55;;;2.45;;
45136;SDS011;30894;51.740;19.498;2023-05-29T04:54:49;11.63;;;3.10;;
45136;SDS011;30894;51.740;19.498;2023-05-29T04:58:14;8.20;;;2.58;;
45136;SDS011;30894;51.740;19.498;2023-05-29T05:01:39;4.68;;;2.40;;
45136;SDS011;30894;51.740;19.498;2023-05-29T05:05:55;5.20;;;2.70;;
45136;SDS011;30894;51.740;19.498;2023-05-29T05:09:02;4.60;;;2.35;;
45136;SDS011;30894;51.740;19.498;2023-05-29T05:12:04;4.55;;;2.42;;
45136;SDS011;30894;51.740;19.498;2023-05-29T05:15:33;5.00;;;2.60;;
45136;SDS011;30894;51.740;19.498;2023-05-29T05:21:52;3.70;;;2.50;;
45136;SDS011;30894;51.740;19.498;2023-05-29T05:30:28;4.57;;;2.30;;
45136;SDS011;30894;51.740;19.498;2023-05-29T05:33:57;9.98;;;2.30;;
45136;SDS011;30894;51.740;19.498;2023-05-29T05:39:23;3.58;;;2.30;;
45136;SDS011;30894;51.740;19.498;2023-05-29T05:42:44;7.78;;;2.15;;
45136;SDS011;30894;51.740;19.498;2023-05-29T05:48:20;3.42;;;1.85;;
45136;SDS011;30894;51.740;19.498;2023-05-29T05:50:52;4.18;;;1.88;;
45136;SDS011;30894;51.740;19.498;2023-05-29T05:53:32;4.82;;;2.10;;
45136;SDS011;30894;51.740;19.498;2023-05-29T05:56:03;4.20;;;2.15;;
45136;SDS011;30894;51.740;19.498;2023-05-29T05:58:37;8.48;;;2.38;;
45136;SDS011;30894;51.740;19.498;2023-05-29T06:01:05;4.30;;;2.33;;
45136;SDS011;30894;51.740;19.498;2023-05-29T06:03:36;4.78;;;2.00;;
45136;SDS011;30894;51.740;19.498;2023-05-29T06:06:05;6.45;;;2.60;;
45136;SDS011;30894;51.740;19.498;2023-05-29T06:08:35;3.40;;;1.90;;
45136;SDS011;30894;51.740;19.498;2023-05-29T06:11:21;3.75;;;1.95;;
45136;SDS011;30894;51.740;19.498;2023-05-29T06:13:50;5.32;;;1.85;;
45136;SDS011;30894;51.740;19.498;2023-05-29T06:16:18;2.13;;;1.60;;
45136;SDS011;30894;51.740;19.498;2023-05-29T06:18:45;3.97;;;1.98;;
45136;SDS011;30894;51.740;19.498;2023-05-29T06:21:11;4.47;;;2.00;;
45136;SDS011;30894;51.740;19.498;2023-05-29T06:23:38;3.88;;;1.55;;
45136;SDS011;30894;51.740;19.498;2023-05-29T06:28:54;1.38;;;1.05;;
45136;SDS011;30894;51.740;19.498;2023-05-29T06:31:20;1.52;;;0.88;;
45136;SDS011;30894;51.740;19.498;2023-05-29T06:33:46;2.10;;;1.23;;
45136;SDS011;30894;51.740;19.498;2023-05-29T06:36:12;2.80;;;0.77;;
45136;SDS011;30894;51.740;19.498;2023-05-29T06:38:38;4.70;;;1.08;;
45136;SDS011;30894;51.740;19.498;2023-05-29T06:41:05;1.23;;;0.82;;
45136;SDS011;30894;51.740;19.498;2023-05-29T06:43:32;2.65;;;1.10;;
45136;SDS011;30894;51.740;19.498;2023-05-29T06:46:13;1.00;;;0.80;;
45136;SDS011;30894;51.740;19.498;2023-05-29T06:48:41;5.30;;;0.90;;
45136;SDS011;30894;51.740;19.498;2023-05-29T06:54:30;3.08;;;1.50;;
45136;SDS011;30894;51.740;19.498;2023-05-29T06:56:56;4.57;;;1.45;;
45136;SDS011;30894;51.740;19.498;2023-05-29T07:02:40;4.53;;;1.30;;
45136;SDS011;30894;51.740;19.498;2023-05-29T07:05:26;5.05;;;1.23;;
45136;SDS011;30894;51.740;19.498;2023-05-29T07:08:07;3.22;;;1.30;;
45136;SDS011;30894;51.740;19.498;2023-05-29T07:10:42;2.38;;;1.50;;
45136;SDS011;30894;51.740;19.498;2023-05-29T07:13:17;5.65;;;1.23;;
45136;SDS011;30894;51.740;19.498;2023-05-29T07:15:50;3.60;;;1.15;;
45136;SDS011;30894;51.740;19.498;2023-05-29T07:18:37;1.48;;;0.82;;
45136;SDS011;30894;51.740;19.498;2023-05-29T07:21:10;1.25;;;0.80;;
45136;SDS011;30894;51.740;19.498;2023-05-29T07:23:42;5.65;;;1.48;;
45136;SDS011;30894;51.740;19.498;2023-05-29T07:26:14;5.13;;;1.00;;
45136;SDS011;30894;51.740;19.498;2023-05-29T07:28:47;1.63;;;0.90;;
45136;SDS011;30894;51.740;19.498;2023-05-29T07:31:13;3.00;;;1.10;;
45136;SDS011;30894;51.740;19.498;2023-05-29T07:36:36;2.53;;;0.80;;
45136;SDS011;30894;51.740;19.498;2023-05-29T07:39:23;1.65;;;0.88;;
45136;SDS011;30894;51.740;19.498;2023-05-29T07:41:49;3.80;;;0.93;;
45136;SDS011;30894;51.740;19.498;2023-05-29T07:44:22;1.65;;;1.05;;
45136;SDS011;30894;51.740;19.498;2023-05-29T07:46:54;1.98;;;0.80;;
45136;SDS011;30894;51.740;19.498;2023-05-29T07:49:41;1.63;;;1.00;;
45136;SDS011;30894;51.740;19.498;2023-05-29T07:52:07;1.70;;;0.70;;
45136;SDS011;30894;51.740;19.498;2023-05-29T07:54:33;3.78;;;0.80;;
45136;SDS011;30894;51.740;19.498;2023-05-29T07:57:00;2.25;;;1.02;;
45136;SDS011;30894;51.740;19.498;2023-05-29T07:59:31;5.63;;;0.85;;
45136;SDS011;30894;51.740;19.498;2023-05-29T08:01:59;1.38;;;0.80;;
45136;SDS011;30894;51.740;19.498;2023-05-29T08:04:28;4.68;;;1.02;;
45136;SDS011;30894;51.740;19.498;2023-05-29T08:06:54;3.28;;;1.02;;
45136;SDS011;30894;51.740;19.498;2023-05-29T08:09:20;1.23;;;0.90;;
45136;SDS011;30894;51.740;19.498;2023-05-29T08:11:47;3.28;;;1.00;;
45136;SDS011;30894;51.740;19.498;2023-05-29T08:14:13;2.35;;;0.80;;
45136;SDS011;30894;51.740;19.498;2023-05-29T08:16:43;5.43;;;0.80;;
45136;SDS011;30894;51.740;19.498;2023-05-29T08:19:09;3.13;;;0.80;;
45136;SDS011;30894;51.740;19.498;2023-05-29T08:21:35;2.83;;;1.08;;
45136;SDS011;30894;51.740;19.498;2023-05-29T08:24:04;1.90;;;0.93;;
45136;SDS011;30894;51.740;19.498;2023-05-29T08:26:30;2.30;;;0.80;;
45136;SDS011;30894;51.740;19.498;2023-05-29T08:28:57;2.05;;;0.80;;
45136;SDS011;30894;51.740;19.498;2023-05-29T08:31:26;1.48;;;1.13;;
45136;SDS011;30894;51.740;19.498;2023-05-29T08:33:53;2.17;;;0.82;;
45136;SDS011;30894;51.740;19.498;2023-05-29T08:36:22;3.00;;;0.90;;
45136;SDS011;30894;51.740;19.498;2023-05-29T08:38:50;3.42;;;1.15;;
45136;SDS011;30894;51.740;19.498;2023-05-29T08:41:21;3.13;;;1.10;;
45136;SDS011;30894;51.740;19.498;2023-05-29T08:43:59;1.98;;;0.90;;
45136;SDS011;30894;51.740;19.498;2023-05-29T08:46:33;1.08;;;0.93;;
45136;SDS011;30894;51.740;19.498;2023-05-29T08:49:00;5.15;;;1.80;;
45136;SDS011;30894;51.740;19.498;2023-05-29T08:51:29;1.52;;;0.82;;
45136;SDS011;30894;51.740;19.498;2023-05-29T08:54:19;2.30;;;1.05;;
45136;SDS011;30894;51.740;19.498;2023-05-29T08:57:39;2.13;;;1.20;;
45136;SDS011;30894;51.740;19.498;2023-05-29T09:00:51;3.40;;;1.10;;
45136;SDS011;30894;51.740;19.498;2023-05-29T09:04:00;4.90;;;1.42;;
45136;SDS011;30894;51.740;19.498;2023-05-29T09:07:05;2.38;;;1.10;;
45136;SDS011;30894;51.740;19.498;2023-05-29T09:13:48;4.35;;;1.10;;
45136;SDS011;30894;51.740;19.498;2023-05-29T09:17:06;0.98;;;0.82;;
45136;SDS011;30894;51.740;19.498;2023-05-29T09:20:17;5.30;;;0.82;;
45136;SDS011;30894;51.740;19.498;2023-05-29T09:23:51;2.78;;;0.95;;
45136;SDS011;30894;51.740;19.498;2023-05-29T09:27:05;1.90;;;1.00;;
45136;SDS011;30894;51.740;19.498;2023-05-29T09:34:06;5.25;;;1.25;;
45136;SDS011;30894;51.740;19.498;2023-05-29T09:37:25;7.38;;;1.20;;
45136;SDS011;30894;51.740;19.498;2023-05-29T09:40:39;1.80;;;1.20;;
45136;SDS011;30894;51.740;19.498;2023-05-29T09:44:06;3.97;;;1.33;;
45136;SDS011;30894;51.740;19.498;2023-05-29T09:46:38;3.30;;;0.90;;
45136;SDS011;30894;51.740;19.498;2023-05-29T09:50:05;3.17;;;1.20;;
45136;SDS011;30894;51.740;19.498;2023-05-29T10:12:05;2.45;;;1.00;;
45136;SDS011;30894;51.740;19.498;2023-05-29T10:15:27;5.30;;;0.90;;
45136;SDS011;30894;51.740;19.498;2023-05-29T10:18:41;1.50;;;1.15;;
45136;SDS011;30894;51.740;19.498;2023-05-29T10:22:20;2.42;;;1.10;;
45136;SDS011;30894;51.740;19.498;2023-05-29T10:25:14;2.13;;;0.93;;
45136;SDS011;30894;51.740;19.498;2023-05-29T10:28:55;2.38;;;0.85;;
45136;SDS011;30894;51.740;19.498;2023-05-29T10:36:28;2.40;;;0.93;;
45136;SDS011;30894;51.740;19.498;2023-05-29T10:39:54;5.00;;;0.90;;
45136;SDS011;30894;51.740;19.498;2023-05-29T10:43:36;1.67;;;1.15;;
45136;SDS011;30894;51.740;19.498;2023-05-29T11:01:04;4.50;;;1.08;;
45136;SDS011;30894;51.740;19.498;2023-05-29T11:04:29;1.40;;;0.90;;
45136;SDS011;30894;51.740;19.498;2023-05-29T11:14:15;2.45;;;0.80;;
45136;SDS011;30894;51.740;19.498;2023-05-29T11:30:46;4.55;;;1.45;;
45136;SDS011;30894;51.740;19.498;2023-05-29T11:34:01;9.57;;;1.13;;
45136;SDS011;30894;51.740;19.498;2023-05-29T11:37:23;2.78;;;1.05;;
45136;SDS011;30894;51.740;19.498;2023-05-29T11:43:23;1.45;;;1.00;;
45136;SDS011;30894;51.740;19.498;2023-05-29T11:46:31;1.77;;;0.93;;
45136;SDS011;30894;51.740;19.498;2023-05-29T11:49:38;3.13;;;1.00;;
45136;SDS011;30894;51.740;19.498;2023-05-29T11:52:26;7.40;;;1.60;;
45136;SDS011;30894;51.740;19.498;2023-05-29T12:12:57;3.63;;;1.05;;
45136;SDS011;30894;51.740;19.498;2023-05-29T12:19:56;1.90;;;1.27;;
45136;SDS011;30894;51.740;19.498;2023-05-29T12:47:22;1.77;;;1.10;;
45136;SDS011;30894;51.740;19.498;2023-05-29T12:50:31;2.95;;;0.90;;
45136;SDS011;30894;51.740;19.498;2023-05-29T12:58:03;3.03;;;1.05;;
45136;SDS011;30894;51.740;19.498;2023-05-29T13:00:57;3.00;;;1.20;;
45136;SDS011;30894;51.740;19.498;2023-05-29T13:10:44;1.40;;;0.85;;
45136;SDS011;30894;51.740;19.498;2023-05-29T13:13:52;1.60;;;1.13;;
45136;SDS011;30894;51.740;19.498;2023-05-29T13:17:11;2.60;;;1.08;;
45136;SDS011;30894;51.740;19.498;2023-05-29T13:19:57;1.00;;;0.90;;
45136;SDS011;30894;51.740;19.498;2023-05-29T13:23:29;3.50;;;1.13;;
45136;SDS011;30894;51.740;19.498;2023-05-29T13:30:14;3.45;;;1.08;;
45136;SDS011;30894;51.740;19.498;2023-05-29T13:32:54;2.75;;;1.13;;
45136;SDS011;30894;51.740;19.498;2023-05-29T13:39:51;1.88;;;1.17;;
45136;SDS011;30894;51.740;19.498;2023-05-29T13:43:46;3.20;;;1.38;;
45136;SDS011;30894;51.740;19.498;2023-05-29T13:46:42;1.33;;;1.08;;
45136;SDS011;30894;51.740;19.498;2023-05-29T13:53:31;2.17;;;0.77;;
45136;SDS011;30894;51.740;19.498;2023-05-29T13:57:14;1.95;;;1.20;;
45136;SDS011;30894;51.740;19.498;2023-05-29T14:04:34;16.83;;;1.38;;
45136;SDS011;30894;51.740;19.498;2023-05-29T14:08:09;3.10;;;1.23;;
45136;SDS011;30894;51.740;19.498;2023-05-29T14:11:14;1.95;;;1.20;;
45136;SDS011;30894;51.740;19.498;2023-05-29T14:14:30;1.67;;;1.10;;
45136;SDS011;30894;51.740;19.498;2023-05-29T14:17:49;4.95;;;1.33;;
45136;SDS011;30894;51.740;19.498;2023-05-29T14:20:55;2.15;;;1.27;;
45136;SDS011;30894;51.740;19.498;2023-05-29T14:27:59;3.22;;;0.90;;
45136;SDS011;30894;51.740;19.498;2023-05-29T14:30:30;2.97;;;1.30;;
45136;SDS011;30894;51.740;19.498;2023-05-29T14:34:21;2.95;;;1.48;;
45136;SDS011;30894;51.740;19.498;2023-05-29T14:40:48;2.00;;;1.20;;
45136;SDS011;30894;51.740;19.498;2023-05-29T14:44:12;3.60;;;1.30;;
45136;SDS011;30894;51.740;19.498;2023-05-29T14:47:29;6.00;;;1.25;;
45136;SDS011;30894;51.740;19.498;2023-05-29T14:51:17;1.60;;;1.17;;
45136;SDS011;30894;51.740;19.498;2023-05-29T14:54:14;1.70;;;1.20;;
45136;SDS011;30894;51.740;19.498;2023-05-29T15:03:05;6.97;;;1.25;;
45136;SDS011;30894;51.740;19.498;2023-05-29T15:12:38;4.85;;;1.23;;
45136;SDS011;30894;51.740;19.498;2023-05-29T15:15:52;1.90;;;1.20;;
45136;SDS011;30894;51.740;19.498;2023-05-29T15:19:36;3.63;;;1.40;;
45136;SDS011;30894;51.740;19.498;2023-05-29T15:22:41;1.85;;;1.13;;
45136;SDS011;30894;51.740;19.498;2023-05-29T15:26:22;3.80;;;1.42;;
45136;SDS011;30894;51.740;19.498;2023-05-29T15:29:24;7.25;;;1.25;;
45136;SDS011;30894;51.740;19.498;2023-05-29T15:32:11;2.38;;;1.25;;
45136;SDS011;30894;51.740;19.498;2023-05-29T15:34:39;1.67;;;1.20;;
45136;SDS011;30894;51.740;19.498;2023-05-29T15:37:07;6.05;;;1.67;;
45136;SDS011;30894;51.740;19.498;2023-05-29T15:39:33;3.03;;;1.40;;
45136;SDS011;30894;51.740;19.498;2023-05-29T15:42:10;7.32;;;1.27;;
45136;SDS011;30894;51.740;19.498;2023-05-29T15:44:40;2.08;;;1.38;;
45136;SDS011;30894;51.740;19.498;2023-05-29T15:47:08;1.80;;;1.20;;
45136;SDS011;30894;51.740;19.498;2023-05-29T15:49:50;5.10;;;1.30;;
45136;SDS011;30894;51.740;19.498;2023-05-29T15:52:38;3.35;;;1.15;;
45136;SDS011;30894;51.740;19.498;2023-05-29T15:55:23;2.17;;;0.98;;
45136;SDS011;30894;51.740;19.498;2023-05-29T15:57:59;3.80;;;1.10;;
45136;SDS011;30894;51.740;19.498;2023-05-29T16:00:45;1.98;;;1.20;;
45136;SDS011;30894;51.740;19.498;2023-05-29T16:06:32;3.70;;;1.38;;
45136;SDS011;30894;51.740;19.498;2023-05-29T16:09:30;1.30;;;1.08;;
45136;SDS011;30894;51.740;19.498;2023-05-29T16:13:15;3.30;;;1.23;;
45136;SDS011;30894;51.740;19.498;2023-05-29T16:15:58;3.08;;;1.23;;
45136;SDS011;30894;51.740;19.498;2023-05-29T16:19:09;2.33;;;1.30;;
45136;SDS011;30894;51.740;19.498;2023-05-29T16:25:12;2.42;;;1.13;;
45136;SDS011;30894;51.740;19.498;2023-05-29T16:28:48;4.72;;;1.45;;
45136;SDS011;30894;51.740;19.498;2023-05-29T16:31:46;3.90;;;1.10;;
45136;SDS011;30894;51.740;19.498;2023-05-29T16:34:40;2.85;;;1.30;;
45136;SDS011;30894;51.740;19.498;2023-05-29T16:41:42;3.03;;;1.20;;
45136;SDS011;30894;51.740;19.498;2023-05-29T16:45:17;2.80;;;1.25;;
45136;SDS011;30894;51.740;19.498;2023-05-29T16:48:01;4.82;;;1.42;;
45136;SDS011;30894;51.740;19.498;2023-05-29T16:50:58;1.88;;;1.08;;
45136;SDS011;30894;51.740;19.498;2023-05-29T16:54:13;5.45;;;1.30;;
45136;SDS011;30894;51.740;19.498;2023-05-29T16:57:49;4.43;;;1.27;;
45136;SDS011;30894;51.740;19.498;2023-05-29T17:00:48;5.07;;;1.33;;
45136;SDS011;30894;51.740;19.498;2023-05-29T17:03:57;3.17;;;1.40;;
45136;SDS011;30894;51.740;19.498;2023-05-29T17:06:59;8.52;;;1.40;;
45136;SDS011;30894;51.740;19.498;2023-05-29T17:09:41;3.65;;;1.25;;
45136;SDS011;30894;51.740;19.498;2023-05-29T17:12:10;4.63;;;1.40;;
45136;SDS011;30894;51.740;19.498;2023-05-29T17:14:40;2.10;;;1.10;;
45136;SDS011;30894;51.740;19.498;2023-05-29T17:17:15;1.58;;;1.13;;
45136;SDS011;30894;51.740;19.498;2023-05-29T17:20:15;4.35;;;1.30;;
45136;SDS011;30894;51.740;19.498;2023-05-29T17:23:09;3.05;;;1.35;;
45136;SDS011;30894;51.740;19.498;2023-05-29T17:26:24;3.88;;;1.60;;
45136;SDS011;30894;51.740;19.498;2023-05-29T17:29:23;5.43;;;1.17;;
45136;SDS011;30894;51.740;19.498;2023-05-29T17:31:51;2.42;;;1.33;;
45136;SDS011;30894;51.740;19.498;2023-05-29T17:34:18;4.40;;;1.48;;
45136;SDS011;30894;51.740;19.498;2023-05-29T17:36:56;2.25;;;1.23;;
45136;SDS011;30894;51.740;19.498;2023-05-29T17:39:29;4.72;;;1.27;;
45136;SDS011;30894;51.740;19.498;2023-05-29T17:42:41;7.50;;;1.33;;
45136;SDS011;30894;51.740;19.498;2023-05-29T17:49:58;3.40;;;1.30;;
45136;SDS011;30894;51.740;19.498;2023-05-29T17:57:23;6.38;;;1.80;;
45136;SDS011;30894;51.740;19.498;2023-05-29T18:00:44;9.73;;;1.88;;
45136;SDS011;30894;51.740;19.498;2023-05-29T18:03:49;7.20;;;1.63;;
45136;SDS011;30894;51.740;19.498;2023-05-29T18:07:17;6.90;;;1.80;;
45136;SDS011;30894;51.740;19.498;2023-05-29T18:10:36;8.25;;;2.13;;
45136;SDS011;30894;51.740;19.498;2023-05-29T18:13:04;9.82;;;2.00;;
45136;SDS011;30894;51.740;19.498;2023-05-29T18:30:43;4.50;;;1.87;;
45136;SDS011;30894;51.740;19.498;2023-05-29T18:33:49;6.18;;;1.80;;
45136;SDS011;30894;51.740;19.498;2023-05-29T18:37:22;5.15;;;1.58;;
45136;SDS011;30894;51.740;19.498;2023-05-29T18:40:35;6.72;;;1.88;;
45136;SDS011;30894;51.740;19.498;2023-05-29T18:43:13;6.25;;;1.90;;
45136;SDS011;30894;51.740;19.498;2023-05-29T18:46:08;6.53;;;1.95;;
45136;SDS011;30894;51.740;19.498;2023-05-29T18:48:48;6.57;;;2.10;;
45136;SDS011;30894;51.740;19.498;2023-05-29T18:51:17;14.20;;;2.47;;
45136;SDS011;30894;51.740;19.498;2023-05-29T18:53:47;9.65;;;2.50;;
45136;SDS011;30894;51.740;19.498;2023-05-29T18:56:13;15.82;;;2.47;;
45136;SDS011;30894;51.740;19.498;2023-05-29T18:58:49;5.10;;;2.28;;
45136;SDS011;30894;51.740;19.498;2023-05-29T19:01:16;7.63;;;1.90;;
45136;SDS011;30894;51.740;19.498;2023-05-29T19:03:43;7.22;;;2.85;;
45136;SDS011;30894;51.740;19.498;2023-05-29T19:06:13;7.80;;;2.40;;
45136;SDS011;30894;51.740;19.498;2023-05-29T19:08:48;12.20;;;2.58;;
45136;SDS011;30894;51.740;19.498;2023-05-29T19:11:20;9.43;;;2.30;;
45136;SDS011;30894;51.740;19.498;2023-05-29T19:13:52;7.22;;;2.22;;
45136;SDS011;30894;51.740;19.498;2023-05-29T19:16:27;7.22;;;1.95;;
45136;SDS011;30894;51.740;19.498;2023-05-29T19:19:16;7.30;;;2.20;;
45136;SDS011;30894;51.740;19.498;2023-05-29T19:21:54;7.50;;;2.35;;
45136;SDS011;30894;51.740;19.498;2023-05-29T19:24:36;4.18;;;2.03;;
45136;SDS011;30894;51.740;19.498;2023-05-29T19:27:21;3.88;;;2.40;;
45136;SDS011;30894;51.740;19.498;2023-05-29T19:29:54;7.13;;;2.08;;
45136;SDS011;30894;51.740;19.498;2023-05-29T19:32:36;7.35;;;2.25;;
45136;SDS011;30894;51.740;19.498;2023-05-29T19:35:09;7.32;;;2.10;;
45136;SDS011;30894;51.740;19.498;2023-05-29T19:37:40;6.75;;;2.25;;
45136;SDS011;30894;51.740;19.498;2023-05-29T19:40:21;7.05;;;2.22;;
45136;SDS011;30894;51.740;19.498;2023-05-29T19:42:48;8.48;;;2.53;;
45136;SDS011;30894;51.740;19.498;2023-05-29T19:45:21;5.45;;;2.00;;
45136;SDS011;30894;51.740;19.498;2023-05-29T19:47:48;7.97;;;2.65;;
45136;SDS011;30894;51.740;19.498;2023-05-29T19:50:18;4.40;;;1.95;;
45136;SDS011;30894;51.740;19.498;2023-05-29T19:52:51;14.88;;;2.65;;
45136;SDS011;30894;51.740;19.498;2023-05-29T20:05:09;9.93;;;4.00;;
45136;SDS011;30894;51.740;19.498;2023-05-29T20:08:47;11.25;;;3.90;;
45136;SDS011;30894;51.740;19.498;2023-05-29T20:11:56;10.82;;;4.03;;
45136;SDS011;30894;51.740;19.498;2023-05-29T20:14:53;7.35;;;3.00;;
45136;SDS011;30894;51.740;19.498;2023-05-29T20:17:47;6.57;;;3.22;;
45136;SDS011;30894;51.740;19.498;2023-05-29T20:24:02;7.05;;;2.90;;
45136;SDS011;30894;51.740;19.498;2023-05-29T20:27:07;5.60;;;2.63;;
45136;SDS011;30894;51.740;19.498;2023-05-29T20:30:32;5.22;;;2.80;;
45136;SDS011;30894;51.740;19.498;2023-05-29T20:33:54;11.27;;;2.63;;
45136;SDS011;30894;51.740;19.498;2023-05-29T20:36:46;8.02;;;2.85;;
45136;SDS011;30894;51.740;19.498;2023-05-29T20:39:59;7.55;;;2.58;;
45136;SDS011;30894;51.740;19.498;2023-05-29T20:43:26;5.38;;;2.63;;
45136;SDS011;30894;51.740;19.498;2023-05-29T20:46:55;10.02;;;2.53;;
45136;SDS011;30894;51.740;19.498;2023-05-29T20:49:47;6.85;;;2.25;;
45136;SDS011;30894;51.740;19.498;2023-05-29T20:53:23;7.15;;;3.15;;
45136;SDS011;30894;51.740;19.498;2023-05-29T20:56:36;8.75;;;2.80;;
45136;SDS011;30894;51.740;19.498;2023-05-29T21:00:02;6.63;;;2.92;;
45136;SDS011;30894;51.740;19.498;2023-05-29T21:03:20;6.07;;;2.97;;
45136;SDS011;30894;51.740;19.498;2023-05-29T21:06:33;4.80;;;2.72;;
45136;SDS011;30894;51.740;19.498;2023-05-29T21:09:36;10.82;;;3.60;;
45136;SDS011;30894;51.740;19.498;2023-05-29T21:13:06;4.70;;;2.35;;
45136;SDS011;30894;51.740;19.498;2023-05-29T21:16:42;9.90;;;2.78;;
45136;SDS011;30894;51.740;19.498;2023-05-29T21:20:22;5.82;;;2.78;;
45136;SDS011;30894;51.740;19.498;2023-05-29T21:31:32;5.13;;;2.13;;
45136;SDS011;30894;51.740;19.498;2023-05-29T21:34:58;4.95;;;2.80;;
45136;SDS011;30894;51.740;19.498;2023-05-29T21:37:25;5.18;;;2.00;;
45136;SDS011;30894;51.740;19.498;2023-05-29T21:40:30;6.15;;;2.83;;
45136;SDS011;30894;51.740;19.498;2023-05-29T21:43:47;6.38;;;2.85;;
45136;SDS011;30894;51.740;19.498;2023-05-29T21:47:26;6.57;;;2.83;;
45136;SDS011;30894;51.740;19.498;2023-05-29T21:50:41;7.43;;;2.67;;
45136;SDS011;30894;51.740;19.498;2023-05-29T21:54:03;10.20;;;2.65;;
45136;SDS011;30894;51.740;19.498;2023-05-29T22:00:37;6.07;;;2.55;;
45136;SDS011;30894;51.740;19.498;2023-05-29T22:07:50;7.82;;;2.88;;
45136;SDS011;30894;51.740;19.498;2023-05-29T22:10:53;5.70;;;2.92;;
45136;SDS011;30894;51.740;19.498;2023-05-29T22:13:22;6.97;;;3.33;;
45136;SDS011;30894;51.740;19.498;2023-05-29T22:15:56;5.35;;;2.60;;
45136;SDS011;30894;51.740;19.498;2023-05-29T22:23:02;9.80;;;3.08;;
45136;SDS011;30894;51.740;19.498;2023-05-29T22:25:32;6.85;;;2.58;;
45136;SDS011;30894;51.740;19.498;2023-05-29T22:30:34;6.78;;;3.08;;
45136;SDS011;30894;51.740;19.498;2023-05-29T22:33:01;7.20;;;2.78;;
45136;SDS011;30894;51.740;19.498;2023-05-29T22:35:41;7.57;;;2.90;;
45136;SDS011;30894;51.740;19.498;2023-05-29T22:38:59;4.60;;;2.78;;
45136;SDS011;30894;51.740;19.498;2023-05-29T22:41:30;6.93;;;2.78;;
45136;SDS011;30894;51.740;19.498;2023-05-29T22:44:03;5.03;;;2.67;;
45136;SDS011;30894;51.740;19.498;2023-05-29T22:47:46;10.15;;;2.75;;
45136;SDS011;30894;51.740;19.498;2023-05-29T22:51:06;7.70;;;2.92;;
45136;SDS011;30894;51.740;19.498;2023-05-29T22:54:23;9.18;;;2.75;;
45136;SDS011;30894;51.740;19.498;2023-05-29T22:56:59;6.07;;;2.75;;
45136;SDS011;30894;51.740;19.498;2023-05-29T23:00:23;5.70;;;2.70;;
45136;SDS011;30894;51.740;19.498;2023-05-29T23:03:31;7.88;;;2.55;;
45136;SDS011;30894;51.740;19.498;2023-05-29T23:06:34;6.95;;;3.05;;
45136;SDS011;30894;51.740;19.498;2023-05-29T23:09:38;8.95;;;3.20;;
45136;SDS011;30894;51.740;19.498;2023-05-29T23:12:05;8.75;;;2.95;;
45136;SDS011;30894;51.740;19.498;2023-05-29T23:14:42;6.15;;;3.00;;
45136;SDS011;30894;51.740;19.498;2023-05-29T23:17:50;7.28;;;2.80;;
45136;SDS011;30894;51.740;19.498;2023-05-29T23:21:27;4.80;;;2.78;;
45136;SDS011;30894;51.740;19.498;2023-05-29T23:24:30;7.53;;;2.70;;
45136;SDS011;30894;51.740;19.498;2023-05-29T23:27:21;14.38;;;2.92;;
45136;SDS011;30894;51.740;19.498;2023-05-29T23:30:11;5.90;;;2.70;;
45136;SDS011;30894;51.740;19.498;2023-05-29T23:33:35;5.88;;;2.08;;
45136;SDS011;30894;51.740;19.498;2023-05-29T23:36:14;5.68;;;2.08;;
45136;SDS011;30894;51.740;19.498;2023-05-29T23:39:54;4.00;;;2.00;;
45136;SDS011;30894;51.740;19.498;2023-05-29T23:42:50;4.03;;;2.20;;
45136;SDS011;30894;51.740;19.498;2023-05-29T23:45:16;7.93;;;2.78;;
45136;SDS011;30894;51.740;19.498;2023-05-29T23:47:42;4.07;;;2.33;;
45136;SDS011;30894;51.740;19.498;2023-05-29T23:50:08;4.88;;;2.33;;
45136;SDS011;30894;51.740;19.498;2023-05-29T23:52:42;7.10;;;2.20;;
45136;SDS011;30894;51.740;19.498;2023-05-29T23:55:09;7.60;;;1.90;;
45136;SDS011;30894;51.740;19.498;2023-05-29T23:57:38;6.60;;;2.03;;
